sensor_id;sensor_type;location;lat;lon;timestamp;P1;durP1;ratioP1;P2;durP2;ratioP2
59970;SDS011;45825;45.434;9.116;2022-12-07T00:00:54;37.90;;;26.02;;
59970;SDS011;45825;45.434;9.116;2022-12-07T00:03:28;40.20;;;25.90;;
59970;SDS011;45825;45.434;9.116;2022-12-07T00:05:56;35.13;;;24.58;;
59970;SDS011;45825;45.434;9.116;2022-12-07T00:08:22;33.60;;;22.95;;
59970;SDS011;45825;45.434;9.116;2022-12-07T00:10:47;33.80;;;25.15;;
59970;SDS011;45825;45.434;9.116;2022-12-07T00:13:13;30.27;;;23.10;;
59970;SDS011;45825;45.434;9.116;2022-12-07T00:15:38;34.85;;;24.70;;
59970;SDS011;45825;45.434;9.116;2022-12-07T00:18:03;36.60;;;25.55;;
59970;SDS011;45825;45.434;9.116;2022-12-07T00:20:29;36.47;;;25.27;;
59970;SDS011;45825;45.434;9.116;2022-12-07T00:22:55;34.60;;;24.77;;
59970;SDS011;45825;45.434;9.116;2022-12-07T00:25:20;37.08;;;26.25;;
59970;SDS011;45825;45.434;9.116;2022-12-07T00:27:45;38.65;;;27.17;;
59970;SDS011;45825;45.434;9.116;2022-12-07T00:30:11;36.97;;;26.60;;
59970;SDS011;45825;45.434;9.116;2022-12-07T00:32:36;38.90;;;28.08;;
59970;SDS011;45825;45.434;9.116;2022-12-07T00:35:02;34.47;;;27.00;;
59970;SDS011;45825;45.434;9.116;2022-12-07T00:37:27;36.80;;;27.35;;
59970;SDS011;45825;45.434;9.116;2022-12-07T00:39:52;38.22;;;27.45;;
59970;SDS011;45825;45.434;9.116;2022-12-07T00:42:17;38.47;;;28.05;;
59970;SDS011;45825;45.434;9.116;2022-12-07T00:44:43;38.33;;;28.05;;
59970;SDS011;45825;45.434;9.116;2022-12-07T00:47:08;38.45;;;28.10;;
59970;SDS011;45825;45.434;9.116;2022-12-07T00:49:33;39.78;;;27.10;;
59970;SDS011;45825;45.434;9.116;2022-12-07T00:51:59;35.95;;;27.75;;
59970;SDS011;45825;45.434;9.116;2022-12-07T00:54:24;43.22;;;28.08;;
59970;SDS011;45825;45.434;9.116;2022-12-07T00:56:49;38.33;;;26.88;;
59970;SDS011;45825;45.434;9.116;2022-12-07T00:59:15;43.70;;;28.02;;
59970;SDS011;45825;45.434;9.116;2022-12-07T01:01:40;37.53;;;29.45;;
59970;SDS011;45825;45.434;9.116;2022-12-07T01:04:06;47.65;;;31.17;;
59970;SDS011;45825;45.434;9.116;2022-12-07T01:06:31;71.07;;;47.40;;
59970;SDS011;45825;45.434;9.116;2022-12-07T01:08:57;43.92;;;31.15;;
59970;SDS011;45825;45.434;9.116;2022-12-07T01:11:24;42.05;;;30.83;;
59970;SDS011;45825;45.434;9.116;2022-12-07T01:13:51;44.33;;;30.80;;
59970;SDS011;45825;45.434;9.116;2022-12-07T01:16:18;42.15;;;29.50;;
59970;SDS011;45825;45.434;9.116;2022-12-07T01:18:48;40.17;;;29.98;;
59970;SDS011;45825;45.434;9.116;2022-12-07T01:21:16;38.55;;;29.10;;
59970;SDS011;45825;45.434;9.116;2022-12-07T01:23:46;34.88;;;27.48;;
59970;SDS011;45825;45.434;9.116;2022-12-07T01:26:13;37.08;;;27.75;;
59970;SDS011;45825;45.434;9.116;2022-12-07T01:28:41;36.88;;;28.02;;
59970;SDS011;45825;45.434;9.116;2022-12-07T01:31:07;36.65;;;26.75;;
59970;SDS011;45825;45.434;9.116;2022-12-07T01:33:36;34.78;;;26.23;;
59970;SDS011;45825;45.434;9.116;2022-12-07T01:36:03;36.72;;;27.58;;
59970;SDS011;45825;45.434;9.116;2022-12-07T01:38:30;44.60;;;28.98;;
59970;SDS011;45825;45.434;9.116;2022-12-07T01:40:56;38.58;;;27.98;;
59970;SDS011;45825;45.434;9.116;2022-12-07T01:43:22;40.85;;;28.13;;
59970;SDS011;45825;45.434;9.116;2022-12-07T01:45:49;38.92;;;27.23;;
59970;SDS011;45825;45.434;9.116;2022-12-07T01:48:15;37.40;;;26.85;;
59970;SDS011;45825;45.434;9.116;2022-12-07T01:50:44;34.67;;;27.00;;
59970;SDS011;45825;45.434;9.116;2022-12-07T01:53:12;38.42;;;27.80;;
59970;SDS011;45825;45.434;9.116;2022-12-07T01:55:40;35.70;;;27.33;;
59970;SDS011;45825;45.434;9.116;2022-12-07T01:58:09;37.38;;;27.55;;
59970;SDS011;45825;45.434;9.116;2022-12-07T02:00:36;39.13;;;27.35;;
59970;SDS011;45825;45.434;9.116;2022-12-07T02:05:41;36.78;;;26.80;;
59970;SDS011;45825;45.434;9.116;2022-12-07T02:08:06;38.90;;;28.08;;
59970;SDS011;45825;45.434;9.116;2022-12-07T02:10:32;36.85;;;27.77;;
59970;SDS011;45825;45.434;9.116;2022-12-07T02:12:59;36.30;;;28.20;;
59970;SDS011;45825;45.434;9.116;2022-12-07T02:15:35;36.45;;;29.33;;
59970;SDS011;45825;45.434;9.116;2022-12-07T02:18:14;36.55;;;28.70;;
59970;SDS011;45825;45.434;9.116;2022-12-07T02:21:08;36.08;;;28.05;;
59970;SDS011;45825;45.434;9.116;2022-12-07T02:31:24;35.15;;;27.05;;
59970;SDS011;45825;45.434;9.116;2022-12-07T02:33:57;35.15;;;28.73;;
59970;SDS011;45825;45.434;9.116;2022-12-07T02:36:50;35.08;;;28.92;;
59970;SDS011;45825;45.434;9.116;2022-12-07T02:39:22;38.67;;;28.70;;
59970;SDS011;45825;45.434;9.116;2022-12-07T02:41:56;35.45;;;28.45;;
59970;SDS011;45825;45.434;9.116;2022-12-07T02:44:27;37.63;;;28.58;;
59970;SDS011;45825;45.434;9.116;2022-12-07T02:47:00;37.47;;;28.98;;
59970;SDS011;45825;45.434;9.116;2022-12-07T02:49:29;38.88;;;29.27;;
59970;SDS011;45825;45.434;9.116;2022-12-07T02:51:55;39.15;;;29.25;;
59970;SDS011;45825;45.434;9.116;2022-12-07T02:54:20;39.90;;;30.67;;
59970;SDS011;45825;45.434;9.116;2022-12-07T02:56:48;38.53;;;29.25;;
59970;SDS011;45825;45.434;9.116;2022-12-07T02:59:21;37.03;;;28.98;;
59970;SDS011;45825;45.434;9.116;2022-12-07T03:18:58;40.13;;;30.45;;
59970;SDS011;45825;45.434;9.116;2022-12-07T03:21:31;39.95;;;30.48;;
59970;SDS011;45825;45.434;9.116;2022-12-07T03:24:03;39.80;;;30.42;;
59970;SDS011;45825;45.434;9.116;2022-12-07T03:26:34;38.35;;;31.60;;
59970;SDS011;45825;45.434;9.116;2022-12-07T03:29:07;38.38;;;30.92;;
59970;SDS011;45825;45.434;9.116;2022-12-07T03:31:41;38.17;;;31.48;;
59970;SDS011;45825;45.434;9.116;2022-12-07T03:34:13;37.65;;;30.38;;
59970;SDS011;45825;45.434;9.116;2022-12-07T03:36:50;37.50;;;29.55;;
59970;SDS011;45825;45.434;9.116;2022-12-07T03:39:30;36.35;;;30.15;;
59970;SDS011;45825;45.434;9.116;2022-12-07T03:42:01;41.63;;;30.52;;
59970;SDS011;45825;45.434;9.116;2022-12-07T03:44:30;37.40;;;27.33;;
59970;SDS011;45825;45.434;9.116;2022-12-07T03:47:04;32.58;;;25.73;;
59970;SDS011;45825;45.434;9.116;2022-12-07T03:52:28;33.97;;;25.40;;
59970;SDS011;45825;45.434;9.116;2022-12-07T03:55:04;31.38;;;25.92;;
59970;SDS011;45825;45.434;9.116;2022-12-07T03:57:34;32.83;;;26.20;;
59970;SDS011;45825;45.434;9.116;2022-12-07T04:00:03;35.05;;;28.02;;
59970;SDS011;45825;45.434;9.116;2022-12-07T04:02:30;33.22;;;27.38;;
59970;SDS011;45825;45.434;9.116;2022-12-07T04:04:56;33.92;;;28.45;;
59970;SDS011;45825;45.434;9.116;2022-12-07T04:07:22;33.97;;;27.38;;
59970;SDS011;45825;45.434;9.116;2022-12-07T04:09:47;32.40;;;27.88;;
59970;SDS011;45825;45.434;9.116;2022-12-07T04:12:13;33.05;;;26.58;;
59970;SDS011;45825;45.434;9.116;2022-12-07T04:14:38;33.55;;;28.15;;
59970;SDS011;45825;45.434;9.116;2022-12-07T04:17:03;32.55;;;27.50;;
59970;SDS011;45825;45.434;9.116;2022-12-07T04:19:30;34.78;;;28.40;;
59970;SDS011;45825;45.434;9.116;2022-12-07T04:21:57;37.15;;;28.38;;
59970;SDS011;45825;45.434;9.116;2022-12-07T04:24:24;36.42;;;28.75;;
59970;SDS011;45825;45.434;9.116;2022-12-07T04:26:49;34.85;;;28.98;;
59970;SDS011;45825;45.434;9.116;2022-12-07T04:29:15;35.55;;;28.25;;
59970;SDS011;45825;45.434;9.116;2022-12-07T04:31:41;35.47;;;27.52;;
59970;SDS011;45825;45.434;9.116;2022-12-07T04:34:07;31.70;;;26.92;;
59970;SDS011;45825;45.434;9.116;2022-12-07T04:36:33;33.42;;;26.13;;
59970;SDS011;45825;45.434;9.116;2022-12-07T04:38:58;33.05;;;26.85;;
59970;SDS011;45825;45.434;9.116;2022-12-07T04:41:24;32.63;;;26.77;;
59970;SDS011;45825;45.434;9.116;2022-12-07T04:43:53;32.58;;;27.00;;
59970;SDS011;45825;45.434;9.116;2022-12-07T04:46:23;29.20;;;24.27;;
59970;SDS011;45825;45.434;9.116;2022-12-07T04:48:49;31.27;;;24.40;;
59970;SDS011;45825;45.434;9.116;2022-12-07T04:51:16;28.38;;;24.02;;
59970;SDS011;45825;45.434;9.116;2022-12-07T04:53:44;27.50;;;23.40;;
59970;SDS011;45825;45.434;9.116;2022-12-07T04:56:10;26.60;;;23.17;;
59970;SDS011;45825;45.434;9.116;2022-12-07T04:58:35;27.02;;;22.77;;
59970;SDS011;45825;45.434;9.116;2022-12-07T05:01:00;26.55;;;22.48;;
59970;SDS011;45825;45.434;9.116;2022-12-07T05:03:26;26.55;;;22.58;;
59970;SDS011;45825;45.434;9.116;2022-12-07T05:05:51;25.10;;;20.95;;
59970;SDS011;45825;45.434;9.116;2022-12-07T05:08:16;25.63;;;20.35;;
59970;SDS011;45825;45.434;9.116;2022-12-07T05:10:41;25.33;;;19.88;;
59970;SDS011;45825;45.434;9.116;2022-12-07T05:13:07;24.30;;;20.08;;
59970;SDS011;45825;45.434;9.116;2022-12-07T05:15:32;23.30;;;19.48;;
59970;SDS011;45825;45.434;9.116;2022-12-07T05:17:57;23.23;;;19.65;;
59970;SDS011;45825;45.434;9.116;2022-12-07T05:20:23;24.33;;;19.42;;
59970;SDS011;45825;45.434;9.116;2022-12-07T05:22:48;22.77;;;19.35;;
59970;SDS011;45825;45.434;9.116;2022-12-07T05:25:13;27.92;;;19.50;;
59970;SDS011;45825;45.434;9.116;2022-12-07T05:27:39;22.33;;;19.58;;
59970;SDS011;45825;45.434;9.116;2022-12-07T05:30:04;21.08;;;18.08;;
59970;SDS011;45825;45.434;9.116;2022-12-07T05:32:30;22.95;;;18.42;;
59970;SDS011;45825;45.434;9.116;2022-12-07T05:34:56;23.13;;;19.23;;
59970;SDS011;45825;45.434;9.116;2022-12-07T05:37:21;23.85;;;19.38;;
59970;SDS011;45825;45.434;9.116;2022-12-07T05:39:46;23.08;;;18.55;;
59970;SDS011;45825;45.434;9.116;2022-12-07T05:42:12;22.45;;;18.35;;
59970;SDS011;45825;45.434;9.116;2022-12-07T05:44:40;25.85;;;18.98;;
59970;SDS011;45825;45.434;9.116;2022-12-07T05:47:07;25.70;;;18.70;;
59970;SDS011;45825;45.434;9.116;2022-12-07T05:49:32;26.42;;;19.10;;
59970;SDS011;45825;45.434;9.116;2022-12-07T05:51:58;23.42;;;17.67;;
59970;SDS011;45825;45.434;9.116;2022-12-07T05:54:24;22.42;;;17.58;;
59970;SDS011;45825;45.434;9.116;2022-12-07T05:56:49;28.77;;;18.08;;
59970;SDS011;45825;45.434;9.116;2022-12-07T05:59:14;22.05;;;16.55;;
59970;SDS011;45825;45.434;9.116;2022-12-07T06:01:50;25.88;;;16.65;;
59970;SDS011;45825;45.434;9.116;2022-12-07T06:04:16;25.55;;;18.15;;
59970;SDS011;45825;45.434;9.116;2022-12-07T06:06:42;25.75;;;18.00;;
59970;SDS011;45825;45.434;9.116;2022-12-07T06:09:07;28.95;;;16.80;;
59970;SDS011;45825;45.434;9.116;2022-12-07T06:11:33;26.52;;;17.90;;
59970;SDS011;45825;45.434;9.116;2022-12-07T06:14:16;35.05;;;20.35;;
59970;SDS011;45825;45.434;9.116;2022-12-07T06:16:42;38.53;;;21.48;;
59970;SDS011;45825;45.434;9.116;2022-12-07T06:19:07;37.75;;;21.48;;
59970;SDS011;45825;45.434;9.116;2022-12-07T06:21:33;33.72;;;18.70;;
59970;SDS011;45825;45.434;9.116;2022-12-07T06:23:58;27.25;;;18.77;;
59970;SDS011;45825;45.434;9.116;2022-12-07T06:26:24;38.63;;;19.65;;
59970;SDS011;45825;45.434;9.116;2022-12-07T06:28:49;36.13;;;18.80;;
59970;SDS011;45825;45.434;9.116;2022-12-07T06:31:14;33.40;;;19.38;;
59970;SDS011;45825;45.434;9.116;2022-12-07T06:33:40;55.40;;;21.33;;
59970;SDS011;45825;45.434;9.116;2022-12-07T06:36:06;53.88;;;22.13;;
59970;SDS011;45825;45.434;9.116;2022-12-07T06:38:32;35.22;;;21.40;;
59970;SDS011;45825;45.434;9.116;2022-12-07T06:40:57;34.15;;;21.58;;
59970;SDS011;45825;45.434;9.116;2022-12-07T06:43:22;38.88;;;23.20;;
59970;SDS011;45825;45.434;9.116;2022-12-07T06:45:47;34.85;;;23.30;;
59970;SDS011;45825;45.434;9.116;2022-12-07T06:48:13;29.02;;;20.65;;
59970;SDS011;45825;45.434;9.116;2022-12-07T06:50:39;39.10;;;22.00;;
59970;SDS011;45825;45.434;9.116;2022-12-07T06:53:04;32.20;;;20.15;;
59970;SDS011;45825;45.434;9.116;2022-12-07T06:55:30;32.53;;;18.85;;
59970;SDS011;45825;45.434;9.116;2022-12-07T06:57:55;27.15;;;18.85;;
59970;SDS011;45825;45.434;9.116;2022-12-07T07:00:20;41.28;;;18.10;;
59970;SDS011;45825;45.434;9.116;2022-12-07T07:02:46;48.63;;;19.77;;
59970;SDS011;45825;45.434;9.116;2022-12-07T07:05:11;42.70;;;21.88;;
59970;SDS011;45825;45.434;9.116;2022-12-07T07:07:37;61.55;;;20.58;;
59970;SDS011;45825;45.434;9.116;2022-12-07T07:10:02;51.15;;;21.38;;
59970;SDS011;45825;45.434;9.116;2022-12-07T07:12:27;35.05;;;22.30;;
59970;SDS011;45825;45.434;9.116;2022-12-07T07:14:53;31.33;;;21.20;;
59970;SDS011;45825;45.434;9.116;2022-12-07T07:17:18;26.85;;;19.58;;
59970;SDS011;45825;45.434;9.116;2022-12-07T07:19:43;26.55;;;18.55;;
59970;SDS011;45825;45.434;9.116;2022-12-07T07:22:09;27.40;;;19.00;;
59970;SDS011;45825;45.434;9.116;2022-12-07T07:24:34;27.65;;;19.70;;
59970;SDS011;45825;45.434;9.116;2022-12-07T07:26:59;28.90;;;19.75;;
59970;SDS011;45825;45.434;9.116;2022-12-07T07:29:25;29.88;;;20.60;;
59970;SDS011;45825;45.434;9.116;2022-12-07T07:31:50;33.40;;;20.48;;
59970;SDS011;45825;45.434;9.116;2022-12-07T07:34:15;28.42;;;20.20;;
59970;SDS011;45825;45.434;9.116;2022-12-07T07:36:41;31.55;;;21.42;;
59970;SDS011;45825;45.434;9.116;2022-12-07T07:39:06;36.50;;;22.02;;
59970;SDS011;45825;45.434;9.116;2022-12-07T07:41:31;35.80;;;22.35;;
59970;SDS011;45825;45.434;9.116;2022-12-07T07:43:56;35.47;;;21.45;;
59970;SDS011;45825;45.434;9.116;2022-12-07T07:46:22;35.17;;;22.27;;
59970;SDS011;45825;45.434;9.116;2022-12-07T07:48:47;33.05;;;21.58;;
59970;SDS011;45825;45.434;9.116;2022-12-07T07:51:13;29.20;;;20.20;;
59970;SDS011;45825;45.434;9.116;2022-12-07T07:53:38;29.88;;;19.73;;
59970;SDS011;45825;45.434;9.116;2022-12-07T07:56:03;27.58;;;18.90;;
59970;SDS011;45825;45.434;9.116;2022-12-07T07:58:29;33.08;;;19.63;;
59970;SDS011;45825;45.434;9.116;2022-12-07T08:00:54;31.95;;;20.30;;
59970;SDS011;45825;45.434;9.116;2022-12-07T08:03:19;29.17;;;19.30;;
